createdAt,value
2023-10-30T00:02:08.291Z,99747.34
2023-10-30T00:05:12.645Z,99754.56
2023-10-30T00:08:17.865Z,99761.13
2023-10-30T00:11:20.808Z,99754.94
2023-10-30T00:14:23.562Z,99761.56
2023-10-30T00:17:26.442Z,99765.19
2023-10-30T00:20:29.324Z,99744.75
2023-10-30T00:23:33.539Z,99752.09
2023-10-30T00:26:36.819Z,99755.81
2023-10-30T00:29:42.038Z,99759.13
2023-10-30T00:32:44.772Z,99754.72
2023-10-30T00:35:47.704Z,99765.44
2023-10-30T00:38:51.799Z,99768.44
2023-10-30T00:41:54.647Z,99767.38
2023-10-30T00:44:57.745Z,99775.63
2023-10-30T00:48:00.618Z,99788.38
2023-10-30T00:51:03.680Z,99799.69
2023-10-30T00:54:08.191Z,99798.09
2023-10-30T00:57:11.114Z,99786.63
2023-10-30T01:00:15.131Z,99795.94
2023-10-30T01:03:20.943Z,99795.47
2023-10-30T01:06:24.224Z,99796.53
2023-10-30T01:09:28.390Z,99791.94
2023-10-30T01:12:31.453Z,99806.13
2023-10-30T01:15:35.346Z,99808.81
2023-10-30T01:18:38.790Z,99803.56
2023-10-30T01:21:41.987Z,99808.69
2023-10-30T01:24:46.071Z,99814.31
2023-10-30T01:27:48.906Z,99812.38
2023-10-30T01:30:51.844Z,99831.31
2023-10-30T01:33:54.687Z,99827.78
2023-10-30T01:36:58.348Z,99833.22
2023-10-30T01:40:02.458Z,99826.22
2023-10-30T01:43:09.851Z,99829.97
2023-10-30T01:46:12.725Z,99833.88
2023-10-30T01:49:15.581Z,99834.78
2023-10-30T01:52:20.032Z,99850.69
2023-10-30T01:55:24.794Z,99858.75
2023-10-30T01:58:28.470Z,99852.50
2023-10-30T02:01:32.241Z,99856.78
2023-10-30T02:04:35.420Z,99858.72
2023-10-30T02:07:38.651Z,99857.94
2023-10-30T02:10:42.760Z,99861.09
2023-10-30T02:13:55.177Z,99868.91
2023-10-30T02:16:58.048Z,99876.09
2023-10-30T02:20:01.295Z,99880.25
2023-10-30T02:23:04.156Z,99866.19
2023-10-30T02:26:08.258Z,99868.75
2023-10-30T02:29:11.121Z,99880.09
2023-10-30T02:32:13.978Z,99868.88
2023-10-30T02:35:17.893Z,99872.16
2023-10-30T02:38:21.003Z,99864.13
2023-10-30T02:41:25.137Z,99857.28
2023-10-30T02:44:29.881Z,99862.53
2023-10-30T02:47:32.928Z,99857.66
2023-10-30T02:50:35.712Z,99860.38
2023-10-30T02:53:38.572Z,99868.81
2023-10-30T02:56:42.697Z,99876.59
2023-10-30T02:59:45.635Z,99861.66
2023-10-30T03:02:48.683Z,99870.22
2023-10-30T03:05:51.947Z,99878.44
2023-10-30T03:08:56.050Z,99873.56
2023-10-30T03:12:00.258Z,99879.06
2023-10-30T03:15:03.183Z,99859.22
2023-10-30T03:18:06.668Z,99869.69
2023-10-30T03:21:09.430Z,99862.19
2023-10-30T03:24:12.518Z,99858.31
2023-10-30T03:27:16.709Z,99870.81
2023-10-30T03:30:20.288Z,99865.88
2023-10-30T03:33:23.226Z,99879.00
2023-10-30T03:36:27.604Z,99882.34
2023-10-30T03:39:30.629Z,99872.72
2023-10-30T03:42:34.909Z,99874.91
2023-10-30T03:45:37.899Z,99884.84
2023-10-30T03:48:40.870Z,99882.84
2023-10-30T03:51:43.680Z,99893.28
2023-10-30T03:54:46.864Z,99890.66
2023-10-30T03:57:50.991Z,99885.44
2023-10-30T04:00:54.163Z,99888.72
2023-10-30T04:03:57.579Z,99889.00
2023-10-30T04:07:01.814Z,99886.28
2023-10-30T04:10:04.957Z,99892.91
2023-10-30T04:13:08.986Z,99897.81
2023-10-30T04:16:12.657Z,99890.97
2023-10-30T04:19:15.609Z,99887.41
2023-10-30T04:22:18.403Z,99894.31
2023-10-30T04:25:21.270Z,99888.81
2023-10-30T04:28:25.523Z,99898.47
2023-10-30T04:31:28.423Z,99882.84
2023-10-30T04:34:31.444Z,99882.00
2023-10-30T04:37:34.322Z,99892.28
2023-10-30T04:40:37.236Z,99899.44
2023-10-30T04:43:41.355Z,99880.41
2023-10-30T04:46:44.152Z,99885.09
2023-10-30T04:49:47.289Z,99885.91
2023-10-30T04:52:50.625Z,99894.31
2023-10-30T04:55:53.803Z,99900.63
2023-10-30T04:58:57.955Z,99894.38
2023-10-30T05:02:02.926Z,99898.41
2023-10-30T05:05:06.489Z,99899.22
2023-10-30T05:08:09.246Z,99901.31
2023-10-30T05:11:11.986Z,99918.47
2023-10-30T05:14:16.328Z,99900.88
2023-10-30T05:17:19.199Z,99911.56
2023-10-30T05:20:21.928Z,99909.66
2023-10-30T05:23:25.551Z,99912.25
2023-10-30T05:26:28.674Z,99923.47
2023-10-30T05:29:33.445Z,99916.56
2023-10-30T05:32:36.362Z,99923.53
2023-10-30T05:35:39.258Z,99922.25
2023-10-30T05:38:41.970Z,99921.97
2023-10-30T05:41:44.853Z,99932.31
2023-10-30T05:44:49.213Z,99933.41
2023-10-30T05:47:52.116Z,99934.06
2023-10-30T05:50:55.162Z,99932.31
2023-10-30T05:53:57.883Z,99930.41
2023-10-30T05:57:00.771Z,99947.19
2023-10-30T06:00:06.817Z,99946.91
2023-10-30T06:03:10.653Z,99944.19
2023-10-30T06:06:13.550Z,99944.59
2023-10-30T06:09:16.344Z,99939.34
2023-10-30T06:12:19.251Z,99939.34
2023-10-30T06:15:23.713Z,99949.03
2023-10-30T06:18:26.503Z,99952.81
2023-10-30T06:21:29.308Z,99957.78
2023-10-30T06:24:32.315Z,99955.28
2023-10-30T06:27:36.280Z,99966.28
2023-10-30T06:30:40.562Z,99965.19
2023-10-30T06:33:43.893Z,99981.84
2023-10-30T06:36:48.945Z,99980.00
2023-10-30T06:39:52.105Z,99981.84
2023-10-30T06:42:54.994Z,99967.66
2023-10-30T06:46:02.640Z,99966.47
2023-10-30T06:49:05.552Z,99977.84
2023-10-30T06:52:08.777Z,99995.94
2023-10-30T06:55:11.807Z,99997.75
2023-10-30T06:58:15.341Z,99985.09
2023-10-30T07:01:19.447Z,99972.34
2023-10-30T07:04:23.652Z,99970.19
2023-10-30T07:07:26.693Z,99987.59
2023-10-30T07:10:29.500Z,99982.63
2023-10-30T07:13:32.255Z,99996.09
2023-10-30T07:16:45.879Z,99993.72
2023-10-30T07:19:52.635Z,100004.66
2023-10-30T07:22:55.916Z,100008.00
2023-10-30T07:25:58.948Z,100010.91
2023-10-30T07:29:02.244Z,100024.28
2023-10-30T07:32:09.637Z,100023.81
2023-10-30T07:35:15.152Z,100026.44
2023-10-30T07:38:21.030Z,100026.88
2023-10-30T07:41:24.036Z,100020.69
2023-10-30T07:44:27.039Z,100044.09
2023-10-30T07:47:43.786Z,100041.72
2023-10-30T07:50:53.019Z,100032.63
2023-10-30T07:53:56.638Z,100029.78
2023-10-30T07:57:00.368Z,100015.91
2023-10-30T08:00:05.523Z,100015.09
2023-10-30T08:03:10.392Z,100021.44
2023-10-30T08:06:14.320Z,100020.03
2023-10-30T08:09:19.530Z,100022.81
2023-10-30T08:12:23.527Z,100023.16
2023-10-30T08:15:29.955Z,100024.59
2023-10-30T08:18:34.426Z,100031.94
2023-10-30T08:21:39.149Z,100012.03
2023-10-30T08:24:45.504Z,100009.66
2023-10-30T08:27:49.193Z,100011.75
2023-10-30T08:30:52.521Z,100025.69
2023-10-30T08:34:02.296Z,100038.44
2023-10-30T08:37:06.089Z,100035.72
2023-10-30T08:40:10.862Z,100031.31
2023-10-30T08:43:14.063Z,100025.44
2023-10-30T08:46:21.835Z,100020.88
2023-10-30T08:49:27.224Z,100025.84
2023-10-30T08:52:29.979Z,100019.03
2023-10-30T08:55:35.442Z,100035.66
2023-10-30T08:58:38.198Z,100037.34
2023-10-30T09:01:41.075Z,100046.22
2023-10-30T09:04:45.655Z,100042.94
2023-10-30T09:07:48.631Z,100049.75
2023-10-30T09:10:51.394Z,100031.28
2023-10-30T09:13:54.199Z,100021.88
2023-10-30T09:16:57.105Z,100036.28
2023-10-30T09:20:01.245Z,100025.22
2023-10-30T09:23:04.055Z,100029.78
2023-10-30T09:26:06.796Z,100042.13
2023-10-30T09:29:09.601Z,100041.50
2023-10-30T09:32:12.348Z,100053.09
2023-10-30T09:35:16.566Z,100046.56
2023-10-30T09:38:19.395Z,100049.13
2023-10-30T09:41:22.742Z,100042.91
2023-10-30T09:44:25.773Z,100032.78
2023-10-30T09:47:29.163Z,100036.84
2023-10-30T09:50:34.884Z,100040.94
2023-10-30T09:53:39.834Z,100038.28
2023-10-30T09:56:45.960Z,100031.34
2023-10-30T09:59:55.116Z,100038.22
2023-10-30T10:02:58.415Z,100032.25
2023-10-30T10:06:02.783Z,100038.41
2023-10-30T10:09:06.052Z,100036.78
2023-10-30T10:12:22.588Z,100063.91
2023-10-30T10:15:25.925Z,100068.19
2023-10-30T10:18:30.297Z,100076.78
2023-10-30T10:21:48.565Z,100069.25
2023-10-30T10:24:51.633Z,100050.41
2023-10-30T10:27:56.312Z,100058.72
2023-10-30T10:30:59.719Z,100073.59
2023-10-30T10:34:02.812Z,100058.44
2023-10-30T10:37:07.354Z,100062.72
2023-10-30T10:40:18.905Z,100056.28
2023-10-30T10:43:23.603Z,100058.66
2023-10-30T10:46:26.513Z,100054.13
2023-10-30T10:49:30.518Z,100058.31
2023-10-30T10:52:35.982Z,100063.25
2023-10-30T10:55:44.235Z,100072.03
2023-10-30T10:58:56.377Z,100067.78
2023-10-30T11:02:02.199Z,100056.75
2023-10-30T11:05:06.767Z,100051.31
2023-10-30T11:08:22.783Z,100061.66
2023-10-30T11:11:31.436Z,100052.28
2023-10-30T11:14:44.976Z,100045.41
2023-10-30T11:18:15.310Z,100051.16
2023-10-30T11:21:18.090Z,100056.56
2023-10-30T11:24:39.129Z,100048.38
2023-10-30T11:27:42.086Z,100039.59
2023-10-30T11:30:46.206Z,100046.84
2023-10-30T11:33:51.006Z,100034.75
2023-10-30T11:36:54.137Z,100033.50
2023-10-30T11:40:02.979Z,100031.41
2023-10-30T11:43:09.995Z,100036.31
2023-10-30T11:46:15.599Z,100032.66
2023-10-30T11:49:21.360Z,100030.75
2023-10-30T11:52:25.368Z,100024.38
2023-10-30T11:55:32.109Z,100039.41
2023-10-30T11:58:35.310Z,100038.25
2023-10-30T12:01:39.618Z,100030.72
2023-10-30T12:04:46.625Z,100040.03
2023-10-30T12:07:50.983Z,100030.25
2023-10-30T12:10:55.165Z,100027.69
2023-10-30T12:13:59.767Z,100023.88
2023-10-30T12:17:05.552Z,100023.69
2023-10-30T12:20:10.124Z,100018.13
2023-10-30T12:23:13.124Z,100018.78
2023-10-30T12:26:17.426Z,100015.72
2023-10-30T12:29:23.885Z,100013.88
2023-10-30T12:32:28.131Z,100018.94
2023-10-30T12:35:30.881Z,100014.50
2023-10-30T12:38:33.735Z,100019.72
2023-10-30T12:41:37.881Z,100019.03
2023-10-30T12:44:41.086Z,100013.00
2023-10-30T12:47:45.935Z,100023.22
2023-10-30T12:50:49.000Z,100021.41
2023-10-30T12:53:51.743Z,100011.22
2023-10-30T12:56:55.971Z,100010.13
2023-10-30T12:59:58.882Z,99996.59
2023-10-30T13:03:01.906Z,100003.22
2023-10-30T13:06:05.103Z,100001.66
2023-10-30T13:09:08.002Z,100002.41
2023-10-30T13:12:12.260Z,99992.72
2023-10-30T13:15:15.152Z,99987.91
2023-10-30T13:18:18.308Z,99994.41
2023-10-30T13:21:21.331Z,99978.13
2023-10-30T13:24:24.103Z,99976.03
2023-10-30T13:27:28.763Z,99969.25
2023-10-30T13:30:32.175Z,99968.13
2023-10-30T13:33:35.049Z,99971.69
2023-10-30T13:36:37.843Z,99971.78
2023-10-30T13:39:40.645Z,99964.13
2023-10-30T13:42:44.835Z,99959.41
2023-10-30T13:45:47.786Z,99964.94
2023-10-30T13:48:50.791Z,99969.09
2023-10-30T13:51:53.643Z,99953.16
2023-10-30T13:54:56.457Z,99956.22
2023-10-30T13:58:07.489Z,99949.91
2023-10-30T14:01:10.399Z,99952.16
2023-10-30T14:04:14.020Z,99938.03
2023-10-30T14:07:18.649Z,99929.22
2023-10-30T14:10:23.264Z,99925.63
2023-10-30T14:13:27.387Z,99922.38
2023-10-30T14:16:30.404Z,99917.34
2023-10-30T14:19:33.202Z,99923.50
2023-10-30T14:22:36.100Z,99922.69
2023-10-30T14:25:38.808Z,99921.25
2023-10-30T14:28:43.102Z,99915.84
2023-10-30T14:31:45.841Z,99916.47
2023-10-30T14:34:49.407Z,99909.91
2023-10-30T14:37:52.457Z,99909.41
2023-10-30T14:40:55.324Z,99901.06
2023-10-30T14:43:59.748Z,99895.13
2023-10-30T14:47:02.520Z,99886.81
2023-10-30T14:50:06.115Z,99899.53
2023-10-30T14:53:08.895Z,99883.75
2023-10-30T14:56:12.272Z,99877.22
2023-10-30T14:59:16.452Z,99875.19
2023-10-30T15:02:19.369Z,99863.25
2023-10-30T15:05:22.195Z,99857.94
2023-10-30T15:08:25.140Z,99849.25
2023-10-30T15:11:30.440Z,99852.63
2023-10-30T15:14:37.140Z,99846.59
2023-10-30T15:17:40.726Z,99856.03
2023-10-30T15:20:43.935Z,99851.41
2023-10-30T15:23:46.813Z,99860.00
2023-10-30T15:26:49.810Z,99859.81
2023-10-30T15:29:53.927Z,99856.34
2023-10-30T15:32:57.605Z,99856.72
2023-10-30T15:36:00.532Z,99863.50
2023-10-30T15:39:07.090Z,99857.16
2023-10-30T15:42:09.821Z,99866.66
2023-10-30T15:45:14.365Z,99870.44
2023-10-30T15:48:17.590Z,99877.00
2023-10-30T15:51:20.765Z,99874.75
2023-10-30T15:57:32.449Z,99878.16
2023-10-30T16:00:36.932Z,99874.94
2023-10-30T16:03:40.887Z,99875.44
2023-10-30T16:06:44.027Z,99867.47
2023-10-30T16:09:49.005Z,99851.53
2023-10-30T16:12:53.096Z,99859.31
2023-10-30T16:15:58.584Z,99846.31
2023-10-30T16:22:09.541Z,99846.94
2023-10-30T16:25:12.917Z,99843.34
2023-10-30T16:28:15.839Z,99838.84
2023-10-30T16:31:21.341Z,99834.97
2023-10-30T16:34:24.238Z,99833.84
2023-10-30T16:37:26.987Z,99830.06
2023-10-30T16:40:29.870Z,99830.06
2023-10-30T16:43:33.799Z,99824.81
2023-10-30T16:46:40.380Z,99811.63
2023-10-30T16:49:43.670Z,99798.13
2023-10-30T16:52:46.747Z,99797.13
2023-10-30T16:55:52.548Z,99788.09
2023-10-30T16:58:56.167Z,99792.41
2023-10-30T17:02:01.419Z,99797.13
2023-10-30T17:05:04.346Z,99792.63
2023-10-30T17:08:07.263Z,99790.97
2023-10-30T17:11:10.699Z,99785.56
2023-10-30T17:14:15.644Z,99791.69
2023-10-30T17:17:20.593Z,99784.03
2023-10-30T17:20:23.412Z,99784.03
2023-10-30T17:23:26.273Z,99779.63
2023-10-30T17:26:29.048Z,99773.59
2023-10-30T17:29:32.186Z,99768.91
2023-10-30T17:32:36.670Z,99757.16
2023-10-30T17:35:39.852Z,99765.94
2023-10-30T17:38:42.604Z,99764.63
2023-10-30T17:41:45.639Z,99757.97
2023-10-30T17:44:49.908Z,99764.31
2023-10-30T17:47:54.547Z,99763.81
2023-10-30T17:50:57.582Z,99758.38
2023-10-30T17:54:00.571Z,99752.34
2023-10-30T17:57:03.834Z,99757.16
2023-10-30T18:00:08.997Z,99747.53
2023-10-30T18:03:13.365Z,99746.13
2023-10-30T18:06:16.205Z,99735.06
2023-10-30T18:09:20.349Z,99725.25
2023-10-30T18:12:23.370Z,99727.63
2023-10-30T18:15:26.380Z,99720.56
2023-10-30T18:18:30.510Z,99710.13
2023-10-30T18:21:33.457Z,99716.47
2023-10-30T18:24:36.779Z,99699.81
2023-10-30T18:27:39.545Z,99697.34
2023-10-30T18:30:42.290Z,99694.09
2023-10-30T18:33:46.479Z,99686.13
2023-10-30T18:36:50.049Z,99673.03
2023-10-30T18:39:53.616Z,99664.16
2023-10-30T18:42:56.489Z,99655.13
2023-10-30T18:46:02.405Z,99653.69
2023-10-30T18:49:07.741Z,99648.41
2023-10-30T18:52:11.254Z,99645.59
2023-10-30T18:55:14.483Z,99639.06
2023-10-30T18:58:18.505Z,99644.63
2023-10-30T19:01:21.627Z,99642.31
2023-10-30T19:04:28.814Z,99642.09
2023-10-30T19:07:32.515Z,99638.22
2023-10-30T19:10:35.846Z,99638.13
2023-10-30T19:13:38.693Z,99633.72
2023-10-30T19:16:41.959Z,99624.69
2023-10-30T19:19:46.703Z,99609.41
2023-10-30T19:22:49.830Z,99599.56
2023-10-30T19:25:53.600Z,99597.75
2023-10-30T19:28:56.748Z,99603.88
2023-10-30T19:32:00.370Z,99605.31
2023-10-30T19:35:05.141Z,99605.63
2023-10-30T19:38:09.101Z,99603.16
2023-10-30T19:41:13.725Z,99606.81
2023-10-30T19:44:17.713Z,99593.66
2023-10-30T19:47:20.958Z,99591.53
2023-10-30T19:50:25.861Z,99592.09
2023-10-30T19:53:28.787Z,99589.16
2023-10-30T19:56:31.919Z,99583.34
2023-10-30T19:59:35.005Z,99576.81
2023-10-30T20:02:38.099Z,99574.97
2023-10-30T20:05:42.786Z,99577.50
2023-10-30T20:08:46.091Z,99589.66
2023-10-30T20:11:49.248Z,99579.25
2023-10-30T20:14:52.708Z,99580.66
2023-10-30T20:17:55.651Z,99570.16
2023-10-30T20:20:59.838Z,99567.28
2023-10-30T20:24:03.372Z,99567.78
2023-10-30T20:27:06.347Z,99568.91
2023-10-30T20:30:11.188Z,99564.34
2023-10-30T20:33:15.814Z,99563.22
2023-10-30T20:36:20.292Z,99552.94
2023-10-30T20:39:24.298Z,99542.00
2023-10-30T20:42:27.331Z,99533.59
2023-10-30T20:45:30.063Z,99525.88
2023-10-30T20:48:34.393Z,99524.34
2023-10-30T20:51:40.913Z,99514.94
2023-10-30T20:54:44.105Z,99518.94
2023-10-30T20:57:46.907Z,99501.19
2023-10-30T21:00:49.722Z,99496.09
2023-10-30T21:03:52.665Z,99497.72
2023-10-30T21:06:56.826Z,99481.19
2023-10-30T21:10:02.730Z,99461.41
2023-10-30T21:13:06.665Z,99439.88
2023-10-30T21:16:10.097Z,99440.81
2023-10-30T21:19:13.965Z,99431.09
2023-10-30T21:22:18.047Z,99394.69
2023-10-30T21:25:21.177Z,99399.56
2023-10-30T21:28:24.202Z,99420.16
2023-10-30T21:31:27.613Z,99423.44
2023-10-30T21:34:32.059Z,99427.09
2023-10-30T21:37:36.353Z,99409.47
2023-10-30T21:40:39.269Z,99404.78
2023-10-30T21:43:43.758Z,99413.03
2023-10-30T21:50:07.989Z,99403.16
2023-10-30T21:56:32.619Z,99413.53
2023-10-30T21:59:35.394Z,99396.50
2023-10-30T22:02:39.899Z,99371.53
2023-10-30T22:05:42.896Z,99366.53
2023-10-30T22:08:47.608Z,99375.19
2023-10-30T22:11:52.099Z,99389.16
2023-10-30T22:14:55.708Z,99401.63
2023-10-30T22:17:58.716Z,99396.00
2023-10-30T22:21:01.798Z,99387.25
2023-10-30T22:24:06.978Z,99389.38
2023-10-30T22:27:12.086Z,99384.16
2023-10-30T22:30:15.315Z,99361.53
2023-10-30T22:33:18.528Z,99370.09
2023-10-30T22:36:21.924Z,99337.16
2023-10-30T22:39:26.246Z,99350.94
2023-10-30T22:42:29.293Z,99347.69
2023-10-30T22:45:32.160Z,99330.22
2023-10-30T22:48:34.914Z,99324.72
2023-10-30T22:51:38.577Z,99301.88
2023-10-30T22:54:42.994Z,99281.47
2023-10-30T22:57:46.108Z,99295.03
2023-10-30T23:00:49.031Z,99279.97
2023-10-30T23:03:54.104Z,99263.00
2023-10-30T23:06:57.535Z,99254.66
2023-10-30T23:10:02.246Z,99253.03
2023-10-30T23:13:05.811Z,99231.13
2023-10-30T23:16:09.226Z,99234.06
2023-10-30T23:19:12.007Z,99227.13
2023-10-30T23:22:14.894Z,99228.47
2023-10-30T23:25:20.507Z,99249.69
2023-10-30T23:28:23.970Z,99248.22
2023-10-30T23:31:26.817Z,99228.75
2023-10-30T23:34:29.736Z,99224.25
2023-10-30T23:37:32.724Z,99229.78
2023-10-30T23:40:37.034Z,99241.41
2023-10-30T23:43:39.969Z,99231.63
2023-10-30T23:46:43.207Z,99218.97
2023-10-30T23:49:46.102Z,99210.59
2023-10-30T23:52:49.092Z,99193.25
2023-10-30T23:55:53.300Z,99184.81
2023-10-30T23:58:56.206Z,99173.13
